Time;durP1;ratioP1;P1;durP2;ratioP2;P2;SDS_P1;SDS_P2;PMS_P1;PMS_P2;Temp;Humidity;BMP_temperature;BMP_pressure;BME280_temperature;BME280_humidity;BME280_pressure;Samples;Min_cycle;Max_cycle;Signal;HPM_P1;HPM_P2
2023/06/30 00:01:32;;;;;;;5.20;1.63;;;15.90;99.90;;;;;;5134023;27;20083;-55
2023/06/30 00:03:58;;;;;;;2.88;1.40;;;15.90;99.90;;;;;;5134623;28;20171;-54
2023/06/30 00:06:24;;;;;;;3.97;2.00;;;15.80;99.90;;;;;;5134506;28;20060;-55
2023/06/30 00:08:50;;;;;;;3.55;1.58;;;15.80;99.90;;;;;;5134877;28;20040;-55
2023/06/30 00:11:17;;;;;;;3.42;1.67;;;15.80;99.90;;;;;;5134567;28;20054;-55
2023/06/30 00:13:42;;;;;;;;;;;15.80;99.90;;;;;;5134725;28;20131;-55
2023/06/30 00:16:08;;;;;;;5.25;1.58;;;15.70;99.90;;;;;;5134236;28;19968;-55
2023/06/30 00:18:34;;;;;;;3.75;1.48;;;15.70;99.90;;;;;;5134465;28;20039;-55
2023/06/30 00:21:01;;;;;;;4.57;1.70;;;15.70;99.90;;;;;;5134410;28;20066;-55
2023/06/30 00:23:27;;;;;;;4.80;1.60;;;15.70;99.90;;;;;;5134392;28;20065;-55
2023/06/30 00:25:54;;;;;;;3.78;1.63;;;15.60;99.90;;;;;;5134250;28;20057;-55
2023/06/30 00:28:19;;;;;;;4.35;1.60;;;15.60;99.90;;;;;;5134214;28;20039;-55
2023/06/30 00:30:45;;;;;;;4.70;1.45;;;15.60;99.90;;;;;;5134266;28;20134;-55
2023/06/30 00:33:11;;;;;;;6.03;1.60;;;15.50;99.90;;;;;;5134530;28;20039;-55
2023/06/30 00:35:37;;;;;;;3.97;1.70;;;15.60;99.90;;;;;;5134207;28;20043;-55
2023/06/30 00:38:03;;;;;;;5.70;1.42;;;15.50;99.90;;;;;;5134148;28;20046;-54
2023/06/30 00:40:28;;;;;;;4.00;1.63;;;15.50;99.90;;;;;;5134242;28;20066;-54
2023/06/30 00:42:54;;;;;;;3.35;1.63;;;15.50;99.90;;;;;;5134229;28;20172;-54
2023/06/30 00:45:20;;;;;;;3.95;1.60;;;15.50;99.90;;;;;;5134001;28;20096;-55
2023/06/30 00:47:46;;;;;;;4.05;2.10;;;15.40;99.90;;;;;;5134242;28;20201;-54
2023/06/30 00:50:12;;;;;;;4.63;1.35;;;15.40;99.90;;;;;;5133864;28;20062;-53
2023/06/30 00:52:39;;;;;;;3.97;1.45;;;15.50;99.90;;;;;;5134133;28;20101;-54
2023/06/30 00:55:07;;;;;;;3.35;1.30;;;15.40;99.90;;;;;;5134186;28;20085;-54
2023/06/30 00:57:33;;;;;;;4.43;1.55;;;15.40;99.90;;;;;;5133915;28;20047;-55
2023/06/30 01:00:05;;;;;;;4.03;1.38;;;15.40;99.90;;;;;;5133846;28;20047;-55
2023/06/30 01:02:34;;;;;;;5.40;1.13;;;15.40;99.90;;;;;;5134224;28;20054;-55
2023/06/30 01:05:08;;;;;;;4.13;1.77;;;15.40;99.90;;;;;;5133974;28;20403;-54
2023/06/30 01:07:43;;;;;;;4.28;1.55;;;15.30;99.90;;;;;;5133902;28;20043;-54
2023/06/30 01:10:17;;;;;;;6.82;1.60;;;15.30;99.90;;;;;;5134063;28;20122;-55
2023/06/30 01:12:44;;;;;;;4.22;1.38;;;15.30;99.90;;;;;;5115688;28;20096;-55
2023/06/30 01:15:11;;;;;;;3.25;1.20;;;15.20;99.90;;;;;;5137334;27;20047;-53
2023/06/30 01:17:41;;;;;;;4.90;1.45;;;15.20;99.90;;;;;;5137417;27;20047;-53
2023/06/30 01:20:10;;;;;;;3.60;1.52;;;15.20;99.90;;;;;;5137682;27;20042;-55
2023/06/30 01:22:42;;;;;;;3.65;1.30;;;15.20;99.90;;;;;;5086220;27;20057;-54
2023/06/30 01:25:15;;;;;;;2.92;1.40;;;15.10;99.90;;;;;;5137185;27;20043;-54
2023/06/30 01:27:42;;;;;;;4.70;2.30;;;15.10;99.90;;;;;;5137976;27;20122;-54
2023/06/30 01:30:08;;;;;;;;;;;15.10;99.90;;;;;;5137748;27;20051;-55
2023/06/30 01:32:35;;;;;;;2.63;1.45;;;15.10;99.90;;;;;;5137436;27;19919;-54
2023/06/30 01:35:00;;;;;;;4.47;1.30;;;15.10;99.90;;;;;;5137080;27;20039;-54
2023/06/30 01:37:26;;;;;;;4.65;1.75;;;15.10;99.90;;;;;;5137009;27;20107;-54
2023/06/30 01:39:52;;;;;;;4.32;1.17;;;15.10;99.90;;;;;;5137098;27;20093;-53
2023/06/30 01:42:18;;;;;;;3.97;1.43;;;15.00;99.90;;;;;;5137093;27;20078;-54
2023/06/30 01:44:45;;;;;;;6.15;1.40;;;15.00;99.90;;;;;;5136878;27;20487;-54
2023/06/30 01:47:12;;;;;;;5.43;1.60;;;15.00;99.90;;;;;;5136789;27;20408;-54
2023/06/30 01:49:37;;;;;;;;;;;14.90;99.90;;;;;;5118836;27;20130;-52
2023/06/30 01:52:04;;;;;;;4.85;1.35;;;14.90;99.90;;;;;;5136684;27;20362;-54
2023/06/30 01:54:29;;;;;;;3.30;1.42;;;14.90;99.90;;;;;;5136644;27;20074;-53
2023/06/30 01:56:55;;;;;;;4.43;1.90;;;14.90;99.90;;;;;;5118682;27;20097;-54
2023/06/30 01:59:21;;;;;;;3.38;1.70;;;14.80;99.90;;;;;;5136712;27;20047;-54
2023/06/30 02:01:47;;;;;;;3.88;1.63;;;14.90;99.90;;;;;;5136679;27;20489;-54
2023/06/30 02:04:12;;;;;;;6.07;1.67;;;14.80;99.90;;;;;;5101432;27;20078;-55
2023/06/30 02:06:38;;;;;;;6.53;1.50;;;14.80;99.90;;;;;;5118092;27;20043;-53
2023/06/30 02:09:04;;;;;;;2.40;1.20;;;14.80;99.90;;;;;;5136527;27;20344;-54
2023/06/30 02:11:30;;;;;;;3.08;1.52;;;14.70;99.90;;;;;;5136777;27;20135;-53
2023/06/30 02:13:56;;;;;;;4.23;1.37;;;14.70;99.90;;;;;;5136522;27;20507;-54
2023/06/30 02:16:21;;;;;;;4.47;1.23;;;14.70;99.90;;;;;;5136448;27;20311;-54
2023/06/30 02:18:47;;;;;;;4.82;1.30;;;14.70;99.90;;;;;;5136379;27;20483;-54
2023/06/30 02:21:13;;;;;;;6.07;1.50;;;14.70;99.90;;;;;;5117952;27;20046;-53
2023/06/30 02:23:38;;;;;;;6.28;1.30;;;14.70;99.90;;;;;;5117889;27;20555;-54
2023/06/30 02:26:04;;;;;;;4.88;1.42;;;14.60;99.90;;;;;;5136133;27;20122;-54
2023/06/30 02:28:30;;;;;;;6.10;1.65;;;14.60;99.90;;;;;;5118000;27;20479;-53
2023/06/30 02:30:56;;;;;;;4.55;1.48;;;14.60;99.90;;;;;;5136017;27;20043;-53
2023/06/30 02:33:22;;;;;;;3.22;1.42;;;14.50;99.90;;;;;;5136175;27;20463;-54
2023/06/30 02:35:48;;;;;;;2.25;1.10;;;14.50;99.90;;;;;;5135742;27;20089;-54
2023/06/30 02:38:13;;;;;;;2.87;1.27;;;14.50;99.90;;;;;;5135753;27;20079;-54
2023/06/30 02:40:39;;;;;;;2.95;1.13;;;14.50;99.90;;;;;;5135973;27;20039;-53
2023/06/30 02:43:05;;;;;;;4.37;1.50;;;14.50;99.90;;;;;;5136101;27;20483;-54
2023/06/30 02:45:30;;;;;;;5.67;1.57;;;14.40;99.90;;;;;;5135857;27;20280;-53
2023/06/30 02:47:56;;;;;;;4.20;1.70;;;14.40;99.90;;;;;;5135690;27;20039;-53
2023/06/30 02:50:31;;;;;;;4.57;1.63;;;14.40;99.90;;;;;;5135586;27;20130;-54
2023/06/30 02:53:00;;;;;;;3.92;1.30;;;14.40;99.90;;;;;;5135996;27;20341;-53
2023/06/30 02:55:26;;;;;;;4.03;1.73;;;14.40;99.90;;;;;;5135683;27;20394;-54
2023/06/30 02:57:52;;;;;;;5.03;1.58;;;14.30;99.90;;;;;;5135428;27;20043;-52
2023/06/30 03:00:19;;;;;;;3.75;1.30;;;14.30;99.90;;;;;;5135604;27;20122;-53
2023/06/30 03:02:45;;;;;;;3.85;1.48;;;14.30;99.90;;;;;;5135414;27;20675;-53
2023/06/30 03:05:11;;;;;;;4.88;1.50;;;14.30;99.90;;;;;;5135299;27;20130;-53
2023/06/30 03:07:36;;;;;;;2.47;1.30;;;14.30;99.90;;;;;;5135420;27;20043;-53
2023/06/30 03:10:03;;;;;;;6.57;1.30;;;14.20;99.90;;;;;;5136073;27;20281;-52
2023/06/30 03:12:28;;;;;;;;;;;14.20;99.90;;;;;;5135747;27;20039;-51
2023/06/30 03:14:54;;;;;;;3.25;1.30;;;14.20;99.90;;;;;;5135284;27;19926;-53
2023/06/30 03:17:20;;;;;;;4.88;1.75;;;14.20;99.90;;;;;;5135354;27;20146;-52
2023/06/30 03:19:46;;;;;;;3.50;1.42;;;14.10;99.90;;;;;;5135156;27;20046;-52
2023/06/30 03:22:11;;;;;;;4.88;1.50;;;14.10;99.90;;;;;;5135180;27;20527;-54
2023/06/30 03:24:37;;;;;;;4.80;1.40;;;14.10;99.90;;;;;;5117243;27;20078;-50
2023/06/30 03:27:04;;;;;;;4.55;1.52;;;14.10;99.90;;;;;;5135229;27;20288;-53
2023/06/30 03:29:29;;;;;;;5.85;1.38;;;14.10;99.90;;;;;;5134789;27;20391;-50
2023/06/30 03:31:55;;;;;;;3.87;1.60;;;14.10;99.90;;;;;;5135012;27;20043;-52
2023/06/30 03:34:21;;;;;;;2.97;1.10;;;14.10;99.90;;;;;;5134807;27;20328;-52
2023/06/30 03:36:46;;;;;;;6.20;2.07;;;14.10;99.90;;;;;;5133913;27;20078;-54
2023/06/30 03:39:12;;;;;;;3.87;1.43;;;14.10;99.90;;;;;;5134791;27;20295;-53
2023/06/30 03:41:38;;;;;;;4.80;2.10;;;14.00;99.90;;;;;;5134909;27;20047;-53
2023/06/30 03:44:04;;;;;;;4.00;1.63;;;14.00;99.90;;;;;;5116768;27;20043;-53
2023/06/30 03:46:29;;;;;;;4.82;1.45;;;14.00;99.90;;;;;;5134734;27;20341;-52
2023/06/30 03:48:55;;;;;;;3.63;1.67;;;14.00;99.90;;;;;;5134386;27;20047;-51
2023/06/30 03:51:21;;;;;;;5.47;1.50;;;14.00;99.90;;;;;;5134987;27;20047;-54
2023/06/30 03:53:46;;;;;;;4.13;1.30;;;14.00;99.90;;;;;;5134910;27;20693;-53
2023/06/30 03:56:12;;;;;;;3.00;1.20;;;14.00;99.90;;;;;;5134956;27;20672;-52
2023/06/30 03:58:38;;;;;;;3.60;1.15;;;14.00;99.90;;;;;;5134590;27;20050;-51
2023/06/30 04:01:05;;;;;;;8.27;2.15;;;14.00;99.90;;;;;;5099333;28;20122;-51
2023/06/30 04:03:31;;;;;;;5.40;1.75;;;14.00;99.90;;;;;;5134220;28;20047;-53
2023/06/30 04:05:56;;;;;;;4.03;1.48;;;14.00;99.90;;;;;;5134436;28;20039;-50
2023/06/30 04:08:22;;;;;;;3.57;1.40;;;14.00;99.90;;;;;;5134487;28;20043;-51
2023/06/30 04:10:48;;;;;;;6.40;1.50;;;14.00;99.90;;;;;;5134800;28;20043;-52
2023/06/30 04:13:13;;;;;;;3.77;1.63;;;14.00;99.90;;;;;;5116339;28;20284;-49
2023/06/30 04:15:39;;;;;;;7.22;1.40;;;14.10;99.90;;;;;;5116253;28;20047;-50
2023/06/30 04:18:05;;;;;;;4.30;1.37;;;14.10;99.90;;;;;;5134269;28;20047;-52
2023/06/30 04:20:31;;;;;;;3.40;1.10;;;14.10;99.90;;;;;;5134275;28;20043;-51
2023/06/30 04:22:56;;;;;;;5.17;1.40;;;14.10;99.90;;;;;;5134489;28;20148;-51
2023/06/30 04:25:22;;;;;;;2.53;1.20;;;14.10;99.90;;;;;;5134605;28;20058;-50
2023/06/30 04:27:48;;;;;;;4.07;1.30;;;14.20;99.90;;;;;;5134084;28;20403;-51
2023/06/30 04:30:13;;;;;;;4.57;1.20;;;14.20;99.90;;;;;;5115979;28;20044;-52
2023/06/30 04:32:39;;;;;;;3.47;1.30;;;14.20;99.90;;;;;;5134262;28;20287;-51
2023/06/30 04:35:05;;;;;;;4.97;1.40;;;14.30;99.90;;;;;;5116157;28;20047;-49
2023/06/30 04:37:31;;;;;;;3.67;1.20;;;14.30;99.90;;;;;;5116699;28;20061;-51
2023/06/30 04:39:57;;;;;;;2.95;1.30;;;14.30;99.90;;;;;;5134261;28;20035;-50
2023/06/30 04:42:23;;;;;;;4.10;1.40;;;14.30;99.90;;;;;;5134335;28;20058;-51
2023/06/30 04:44:50;;;;;;;4.80;1.60;;;14.40;99.90;;;;;;5133971;28;20088;-50
2023/06/30 04:47:16;;;;;;;2.65;1.40;;;14.40;99.90;;;;;;5134536;27;20087;-51
2023/06/30 04:49:42;;;;;;;4.10;1.60;;;14.40;99.90;;;;;;5138195;27;20055;-51
2023/06/30 04:52:08;;;;;;;3.53;1.30;;;14.50;99.90;;;;;;5138271;27;20045;-49
2023/06/30 04:54:33;;;;;;;2.83;1.50;;;14.50;99.90;;;;;;5138087;27;20047;-52
2023/06/30 04:56:59;;;;;;;3.83;1.30;;;14.50;99.90;;;;;;5119713;27;20039;-53
2023/06/30 04:59:25;;;;;;;3.57;1.57;;;14.60;99.90;;;;;;5137871;27;20043;-50
2023/06/30 05:01:50;;;;;;;2.90;1.33;;;14.60;99.90;;;;;;5119476;27;20403;-51
2023/06/30 05:04:16;;;;;;;3.88;1.35;;;14.60;99.90;;;;;;5119297;27;20284;-49
2023/06/30 05:06:42;;;;;;;5.15;1.50;;;14.60;99.90;;;;;;5137857;27;20039;-52
2023/06/30 05:09:08;;;;;;;3.58;1.33;;;14.70;99.90;;;;;;5137806;27;20547;-50
2023/06/30 05:11:33;;;;;;;2.93;1.20;;;14.70;99.90;;;;;;5137673;27;20498;-50
2023/06/30 05:13:59;;;;;;;3.87;1.47;;;14.80;99.90;;;;;;5137609;27;20043;-53
2023/06/30 05:16:25;;;;;;;5.15;1.80;;;14.90;99.90;;;;;;5137525;27;20054;-50
2023/06/30 05:18:50;;;;;;;4.90;1.40;;;15.10;99.90;;;;;;5118988;27;20420;-52
2023/06/30 05:21:16;;;;;;;3.07;1.40;;;15.40;99.90;;;;;;5137521;27;20043;-52
2023/06/30 05:23:42;;;;;;;3.67;1.47;;;15.80;99.90;;;;;;5137708;27;20295;-53
2023/06/30 05:26:10;;;;;;;3.05;1.60;;;16.20;99.90;;;;;;5137534;27;20629;-53
2023/06/30 05:28:36;;;;;;;3.08;1.17;;;16.20;99.90;;;;;;5137294;27;20552;-52
2023/06/30 05:31:03;;;;;;;2.78;1.23;;;16.10;99.90;;;;;;5137220;27;20061;-51
2023/06/30 05:33:28;;;;;;;3.92;1.30;;;16.10;99.90;;;;;;5137256;27;20063;-53
2023/06/30 05:35:54;;;;;;;2.72;1.23;;;16.20;99.90;;;;;;5119021;27;20537;-52
2023/06/30 05:38:20;;;;;;;3.40;1.58;;;16.30;99.90;;;;;;5119449;27;20387;-51
2023/06/30 05:40:45;;;;;;;2.95;1.20;;;16.40;99.90;;;;;;5137186;27;20197;-56
2023/06/30 05:43:11;;;;;;;3.72;1.15;;;16.40;99.90;;;;;;5137016;27;20050;-55
2023/06/30 05:45:37;;;;;;;4.78;1.33;;;16.40;99.90;;;;;;5136797;27;20082;-56
2023/06/30 05:48:03;;;;;;;2.47;1.20;;;16.40;99.90;;;;;;5118673;27;20074;-55
2023/06/30 05:50:29;;;;;;;3.72;1.25;;;16.50;99.90;;;;;;5137336;27;20097;-55
2023/06/30 05:52:55;;;;;;;2.47;1.15;;;16.50;99.90;;;;;;5136794;27;20051;-53
2023/06/30 05:55:21;;;;;;;5.47;1.38;;;16.60;99.90;;;;;;5118503;27;20140;-53
2023/06/30 05:57:47;;;;;;;3.55;1.20;;;16.60;99.90;;;;;;5136628;27;20046;-53
2023/06/30 06:00:13;;;;;;;3.00;1.35;;;16.60;99.90;;;;;;5135915;27;20137;-55
2023/06/30 06:02:39;;;;;;;;;;;16.60;99.90;;;;;;5137156;27;20055;-55
2023/06/30 06:05:05;;;;;;;3.35;1.38;;;16.70;99.90;;;;;;5136660;27;20002;-54
2023/06/30 06:07:31;;;;;;;3.38;1.15;;;16.70;99.90;;;;;;5118810;27;20051;-54
2023/06/30 06:09:56;;;;;;;2.92;1.30;;;16.80;99.90;;;;;;5118481;27;20047;-55
2023/06/30 06:12:22;;;;;;;4.35;1.33;;;16.90;99.90;;;;;;5118260;27;20140;-55
2023/06/30 06:14:48;;;;;;;4.72;1.42;;;17.00;99.90;;;;;;5136328;27;20398;-54
2023/06/30 06:17:13;;;;;;;3.85;1.20;;;17.10;99.90;;;;;;5136225;27;20051;-56
2023/06/30 06:19:39;;;;;;;2.03;1.10;;;17.10;99.90;;;;;;5136400;27;20039;-52
2023/06/30 06:22:05;;;;;;;3.53;1.00;;;17.20;99.90;;;;;;5117950;27;20579;-55
2023/06/30 06:24:31;;;;;;;3.45;1.30;;;17.20;99.90;;;;;;5136206;27;20433;-55
2023/06/30 06:26:57;;;;;;;3.58;1.10;;;17.30;99.90;;;;;;5136162;27;20100;-56
2023/06/30 06:29:22;;;;;;;2.30;0.90;;;17.30;99.90;;;;;;5136015;27;20059;-56
2023/06/30 06:31:52;;;;;;;3.08;1.27;;;17.40;99.90;;;;;;5135780;27;20059;-56
2023/06/30 06:34:18;;;;;;;2.63;0.90;;;17.40;99.90;;;;;;5136129;27;20100;-56
2023/06/30 06:36:45;;;;;;;2.70;0.93;;;17.40;99.90;;;;;;5117825;27;20054;-56
2023/06/30 06:39:11;;;;;;;2.85;0.90;;;17.40;99.90;;;;;;5135707;27;20039;-55
2023/06/30 06:41:37;;;;;;;3.88;0.90;;;17.40;99.90;;;;;;5135877;27;20035;-56
2023/06/30 06:44:03;;;;;;;2.90;1.20;;;17.40;99.90;;;;;;5135838;27;20049;-56
2023/06/30 06:46:29;;;;;;;4.32;1.10;;;17.40;99.90;;;;;;5135818;27;20468;-56
2023/06/30 06:48:55;;;;;;;2.83;1.27;;;17.40;99.90;;;;;;5117476;27;20051;-55
2023/06/30 06:51:21;;;;;;;3.97;1.08;;;17.50;99.90;;;;;;5135982;27;20399;-53
2023/06/30 06:53:47;;;;;;;1.92;0.93;;;17.60;99.90;;;;;;5135599;27;20410;-53
2023/06/30 06:56:12;;;;;;;2.03;0.70;;;17.70;99.90;;;;;;5117373;27;20043;-53
2023/06/30 06:58:38;;;;;;;2.95;0.70;;;17.70;99.90;;;;;;5135403;27;20058;-55
2023/06/30 07:01:04;;;;;;;2.38;0.90;;;17.80;99.90;;;;;;5136085;27;20127;-55
2023/06/30 07:03:30;;;;;;;1.90;0.60;;;17.80;99.90;;;;;;5135454;27;20128;-56
2023/06/30 07:05:57;;;;;;;3.90;0.85;;;17.80;99.90;;;;;;5135219;27;20193;-55
2023/06/30 07:08:23;;;;;;;4.95;0.70;;;17.90;99.90;;;;;;5135616;27;20122;-56
2023/06/30 07:10:50;;;;;;;1.92;0.70;;;17.90;99.90;;;;;;5135199;27;20051;-53
2023/06/30 07:13:18;;;;;;;2.72;0.60;;;17.90;99.90;;;;;;5117113;27;20043;-54
2023/06/30 07:15:45;;;;;;;2.08;0.70;;;17.90;99.90;;;;;;5117220;27;20079;-51
2023/06/30 07:18:11;;;;;;;3.13;1.40;;;17.90;99.90;;;;;;5117451;27;20051;-56
2023/06/30 07:20:37;;;;;;;1.38;0.52;;;18.00;99.90;;;;;;5100103;27;20043;-56
2023/06/30 07:23:02;;;;;;;1.48;0.50;;;18.00;99.90;;;;;;5135320;27;20095;-54
2023/06/30 07:25:28;;;;;;;2.72;0.80;;;18.10;99.90;;;;;;5135136;27;20517;-56
2023/06/30 07:27:56;;;;;;;3.03;0.50;;;18.10;99.90;;;;;;5134856;27;20043;-56
2023/06/30 07:30:26;;;;;;;1.30;0.50;;;18.00;99.90;;;;;;5135195;27;20054;-51
2023/06/30 07:32:52;;;;;;;1.27;0.50;;;17.90;99.90;;;;;;5135230;27;20043;-56
2023/06/30 07:35:18;;;;;;;2.47;0.55;;;17.90;99.90;;;;;;5135019;27;20480;-55
2023/06/30 07:37:44;;;;;;;3.17;1.33;;;17.90;99.90;;;;;;5134987;27;20051;-55
2023/06/30 07:40:11;;;;;;;3.05;0.85;;;17.80;99.90;;;;;;5134951;27;20043;-50
2023/06/30 07:42:38;;;;;;;3.00;0.50;;;17.80;99.90;;;;;;5134666;27;20054;-55
2023/06/30 07:45:15;;;;;;;2.33;0.60;;;17.70;99.90;;;;;;5134835;27;20047;-55
2023/06/30 07:47:45;;;;;;;2.38;0.70;;;17.70;99.90;;;;;;5134901;27;20151;-54
2023/06/30 07:50:13;;;;;;;3.00;0.60;;;17.80;99.90;;;;;;5134406;27;20492;-55
2023/06/30 07:52:44;;;;;;;1.20;0.45;;;17.80;99.90;;;;;;5116522;27;20043;-56
2023/06/30 07:55:12;;;;;;;13.77;6.65;;;17.80;99.90;;;;;;5116249;27;20109;-54
2023/06/30 07:57:38;;;;;;;1.67;0.80;;;17.90;99.90;;;;;;5134705;27;20054;-54
2023/06/30 08:00:06;;;;;;;2.25;0.80;;;17.90;99.90;;;;;;5134378;27;20468;-56
2023/06/30 08:02:31;;;;;;;4.28;0.60;;;17.90;99.90;;;;;;5134509;28;20055;-56
2023/06/30 08:04:57;;;;;;;2.28;0.50;;;18.00;99.90;;;;;;5134609;28;20039;-55
2023/06/30 08:07:23;;;;;;;1.48;0.50;;;18.10;99.90;;;;;;5134577;28;20089;-55
2023/06/30 08:09:49;;;;;;;1.70;0.60;;;18.10;99.90;;;;;;5134315;28;20043;-56
2023/06/30 08:12:15;;;;;;;2.65;0.40;;;18.20;99.90;;;;;;5134578;28;20047;-55
2023/06/30 08:14:41;;;;;;;2.88;0.60;;;18.20;99.90;;;;;;5134461;28;20076;-54
2023/06/30 08:17:06;;;;;;;2.88;0.70;;;18.20;99.90;;;;;;5134576;28;20499;-55
2023/06/30 08:19:32;;;;;;;2.30;0.50;;;18.20;99.90;;;;;;5116062;28;20079;-54
2023/06/30 08:21:57;;;;;;;0.98;0.43;;;18.20;99.90;;;;;;5116253;27;20042;-55
2023/06/30 08:24:23;;;;;;;2.58;0.50;;;18.20;99.90;;;;;;5138454;27;20160;-51
2023/06/30 08:26:49;;;;;;;1.55;0.40;;;18.20;99.90;;;;;;5138718;27;20139;-55
2023/06/30 08:29:14;;;;;;;0.70;0.30;;;18.30;99.90;;;;;;5138628;27;20184;-54
2023/06/30 08:31:40;;;;;;;2.53;0.50;;;18.30;99.90;;;;;;5138583;27;20043;-55
2023/06/30 08:34:08;;;;;;;1.10;0.40;;;18.30;99.90;;;;;;5138413;27;20471;-55
2023/06/30 08:36:34;;;;;;;2.17;0.60;;;18.40;99.90;;;;;;5120284;27;20080;-55
2023/06/30 08:39:00;;;;;;;1.70;0.75;;;18.40;99.90;;;;;;5138155;27;20039;-55
2023/06/30 08:41:27;;;;;;;1.25;0.65;;;18.40;99.90;;;;;;5138405;27;20433;-56
2023/06/30 08:43:55;;;;;;;4.72;0.70;;;18.40;99.90;;;;;;5138239;27;20090;-55
2023/06/30 08:46:24;;;;;;;3.90;0.55;;;18.40;99.90;;;;;;5138372;27;20399;-56
2023/06/30 08:48:51;;;;;;;1.75;0.70;;;18.30;99.90;;;;;;5137993;27;20540;-54
2023/06/30 08:51:18;;;;;;;3.58;1.23;;;18.40;99.90;;;;;;5138024;27;20077;-51
2023/06/30 08:53:46;;;;;;;2.65;0.70;;;18.50;99.90;;;;;;5138142;27;20082;-51
2023/06/30 08:56:14;;;;;;;1.25;0.50;;;18.40;99.90;;;;;;5138014;27;20491;-55
2023/06/30 08:58:40;;;;;;;3.25;0.60;;;18.40;99.90;;;;;;5137841;27;20073;-50
2023/06/30 09:01:07;;;;;;;0.85;0.22;;;18.30;99.90;;;;;;5138074;27;20090;-56
2023/06/30 09:03:34;;;;;;;1.15;0.50;;;18.30;99.90;;;;;;5119674;27;20048;-54
2023/06/30 09:06:00;;;;;;;1.00;0.40;;;18.40;99.90;;;;;;5137549;27;20049;-54
2023/06/30 09:08:40;;;;;;;1.83;0.60;;;18.40;99.90;;;;;;5137840;27;20091;-50
2023/06/30 09:11:08;;;;;;;0.85;0.40;;;18.50;99.90;;;;;;5137675;27;20051;-55
2023/06/30 09:13:36;;;;;;;1.80;0.55;;;18.40;99.90;;;;;;5119838;27;20047;-54
2023/06/30 09:16:06;;;;;;;1.20;0.40;;;18.40;99.90;;;;;;5137719;27;20046;-48
2023/06/30 09:18:33;;;;;;;2.33;0.57;;;18.40;99.90;;;;;;5137271;27;20480;-56
2023/06/30 09:20:59;;;;;;;2.17;0.40;;;18.40;99.90;;;;;;5137598;27;20066;-56
2023/06/30 09:23:27;;;;;;;1.38;0.47;;;18.40;99.90;;;;;;5119412;27;20039;-56
2023/06/30 09:25:53;;;;;;;1.15;0.50;;;18.50;99.90;;;;;;5119518;27;20169;-54
2023/06/30 09:28:18;;;;;;;1.27;0.40;;;18.60;99.90;;;;;;5137402;27;20074;-54
2023/06/30 09:30:46;;;;;;;1.30;0.50;;;18.70;99.90;;;;;;5137265;27;20078;-55
2023/06/30 09:33:16;;;;;;;1.63;0.60;;;18.70;99.90;;;;;;5136917;27;20043;-50
2023/06/30 09:35:44;;;;;;;1.08;0.50;;;18.70;99.90;;;;;;5136266;27;20039;-52
2023/06/30 09:38:14;;;;;;;5.03;0.63;;;18.60;99.90;;;;;;5137167;27;20043;-56
2023/06/30 09:40:48;;;;;;;2.70;0.50;;;18.60;99.90;;;;;;5118836;27;20042;-54
2023/06/30 09:43:19;;;;;;;1.80;0.55;;;18.50;99.90;;;;;;5137263;27;20043;-53
2023/06/30 09:45:47;;;;;;;2.60;0.60;;;18.50;99.90;;;;;;5118721;27;20043;-55
2023/06/30 09:48:13;;;;;;;1.30;0.50;;;18.50;99.90;;;;;;5137110;27;20069;-53
2023/06/30 09:50:41;;;;;;;;;;;18.60;99.90;;;;;;5138035;27;20051;-55
2023/06/30 09:53:08;;;;;;;0.95;0.50;;;18.70;99.90;;;;;;5136813;27;19919;-55
2023/06/30 09:55:48;;;;;;;2.70;0.40;;;18.70;99.90;;;;;;5136834;27;20047;-55
2023/06/30 09:58:16;;;;;;;1.05;0.40;;;18.70;99.90;;;;;;5136593;27;20391;-55
2023/06/30 10:00:42;;;;;;;3.40;0.73;;;18.60;99.90;;;;;;5136842;27;20089;-55
2023/06/30 10:03:10;;;;;;;1.90;0.55;;;18.60;99.90;;;;;;5136728;27;20084;-55
2023/06/30 10:05:37;;;;;;;0.95;0.40;;;18.60;99.90;;;;;;5136625;27;20073;-56
2023/06/30 10:08:03;;;;;;;3.53;0.60;;;18.70;99.90;;;;;;5136676;27;20079;-55
2023/06/30 10:10:30;;;;;;;1.20;0.50;;;18.70;99.90;;;;;;5136378;27;20093;-55
2023/06/30 10:12:58;;;;;;;1.98;0.60;;;18.90;99.90;;;;;;5118033;27;20051;-55
2023/06/30 10:15:25;;;;;;;1.85;0.47;;;18.90;99.90;;;;;;5136541;27;20054;-56
2023/06/30 10:17:52;;;;;;;1.92;0.50;;;19.00;99.90;;;;;;5136592;27;20069;-52
2023/06/30 10:20:18;;;;;;;0.85;0.40;;;18.90;99.90;;;;;;5118361;27;20529;-55
2023/06/30 10:22:44;;;;;;;2.33;0.35;;;18.90;99.90;;;;;;5136330;27;20514;-50
2023/06/30 10:25:11;;;;;;;1.75;0.50;;;19.00;99.90;;;;;;5136005;27;20051;-54
2023/06/30 10:27:38;;;;;;;1.02;0.50;;;19.10;99.90;;;;;;5117932;27;20156;-54
2023/06/30 10:30:04;;;;;;;1.13;0.40;;;19.30;99.90;;;;;;5136274;27;20043;-53
2023/06/30 10:32:29;;;;;;;1.15;0.43;;;19.40;99.90;;;;;;5136215;27;20098;-55
2023/06/30 10:34:57;;;;;;;1.95;0.70;;;19.50;99.90;;;;;;5117875;27;20429;-54
2023/06/30 10:37:24;;;;;;;2.90;0.63;;;19.50;99.90;;;;;;5135962;27;20070;-55
2023/06/30 10:39:50;;;;;;;2.00;0.30;;;19.50;99.90;;;;;;5117453;27;20040;-55
2023/06/30 10:42:17;;;;;;;1.23;0.40;;;19.50;99.90;;;;;;5135740;27;20047;-55
2023/06/30 10:44:47;;;;;;;1.63;0.60;;;19.50;99.90;;;;;;5117749;27;20051;-55
2023/06/30 10:47:14;;;;;;;2.20;0.47;;;19.70;99.90;;;;;;5135769;27;20097;-54
2023/06/30 10:49:41;;;;;;;2.13;0.60;;;19.90;99.90;;;;;;5117314;27;20057;-52
2023/06/30 10:52:09;;;;;;;1.70;0.60;;;20.10;99.90;;;;;;5135570;27;20495;-48
2023/06/30 10:54:44;;;;;;;1.80;0.60;;;20.30;99.90;;;;;;5100299;27;20061;-50
2023/06/30 10:57:11;;;;;;;1.48;0.40;;;20.40;99.90;;;;;;5135703;27;20078;-51
2023/06/30 10:59:39;;;;;;;0.90;0.60;;;20.40;99.90;;;;;;5117111;27;20039;-54
2023/06/30 11:02:17;;;;;;;1.58;0.63;;;20.50;99.90;;;;;;5135601;27;20408;-54
2023/06/30 11:04:44;;;;;;;1.88;0.60;;;20.50;99.90;;;;;;5135530;27;20055;-54
2023/06/30 11:07:16;;;;;;;2.13;0.70;;;20.50;99.90;;;;;;5117136;27;20050;-50
2023/06/30 11:09:47;;;;;;;1.42;0.50;;;20.70;99.90;;;;;;5117710;27;20380;-53
2023/06/30 11:12:20;;;;;;;1.33;0.40;;;20.90;99.90;;;;;;5135288;27;20043;-54
2023/06/30 11:14:59;;;;;;;2.30;0.40;;;21.10;99.90;;;;;;5117039;27;20050;-53
2023/06/30 11:17:27;;;;;;;2.60;0.47;;;21.20;99.90;;;;;;5135151;27;20076;-51
2023/06/30 11:20:18;;;;;;;1.27;0.55;;;21.40;99.90;;;;;;5135212;27;20429;-54
2023/06/30 11:23:04;;;;;;;1.08;0.60;;;21.50;99.90;;;;;;5131368;27;20058;-54
2023/06/30 11:25:31;;;;;;;1.55;0.60;;;21.70;99.90;;;;;;5135121;27;20047;-54
2023/06/30 11:27:59;;;;;;;4.13;0.60;;;21.70;99.90;;;;;;5116783;27;20093;-53
2023/06/30 11:30:26;;;;;;;1.33;0.60;;;21.60;99.90;;;;;;5135110;27;20100;-54
2023/06/30 11:32:57;;;;;;;2.88;0.60;;;21.50;99.90;;;;;;5135033;27;20053;-50
2023/06/30 11:35:24;;;;;;;1.42;0.60;;;21.30;99.90;;;;;;5116691;27;20047;-53
2023/06/30 11:37:50;;;;;;;1.88;0.80;;;21.20;99.90;;;;;;5134997;27;20078;-50
2023/06/30 11:40:17;;;;;;;5.55;0.88;;;21.20;99.90;;;;;;5116399;27;20458;-55
2023/06/30 11:42:43;;;;;;;1.75;0.57;;;21.30;99.90;;;;;;5134910;27;20047;-55
2023/06/30 11:45:10;;;;;;;2.70;0.60;;;21.40;99.90;;;;;;5134939;27;20125;-54
2023/06/30 11:47:44;;;;;;;1.50;0.70;;;21.40;99.90;;;;;;5134822;27;20046;-53
2023/06/30 11:50:11;;;;;;;3.70;0.77;;;21.40;99.90;;;;;;5134868;27;20100;-53
2023/06/30 11:52:39;;;;;;;2.47;0.60;;;21.30;99.90;;;;;;5134532;27;20051;-54
2023/06/30 11:55:09;;;;;;;2.20;0.52;;;21.20;99.90;;;;;;5134512;27;20480;-51
2023/06/30 11:57:36;;;;;;;3.63;0.70;;;21.10;99.90;;;;;;5134187;27;20051;-50
2023/06/30 12:00:19;;;;;;;1.88;0.60;;;21.00;99.90;;;;;;5134404;27;20492;-54
2023/06/30 12:02:47;;;;;;;3.78;0.85;;;20.90;99.90;;;;;;5134581;28;20039;-54
2023/06/30 12:05:39;;;;;;;4.25;1.00;;;20.80;99.90;;;;;;5116498;28;20050;-50
2023/06/30 12:08:06;;;;;;;12.60;2.45;;;20.70;99.90;;;;;;5130940;28;20090;-47
2023/06/30 12:10:37;;;;;;;3.25;0.70;;;20.80;99.90;;;;;;5134445;28;20050;-49
2023/06/30 12:13:06;;;;;;;3.00;0.60;;;21.00;99.90;;;;;;5134522;28;20047;-54
2023/06/30 12:15:32;;;;;;;3.85;0.60;;;21.30;99.90;;;;;;5116446;28;20047;-53
2023/06/30 12:17:57;;;;;;;3.28;1.15;;;21.50;99.90;;;;;;5134175;28;20045;-54
2023/06/30 12:20:38;;;;;;;1.95;0.82;;;21.60;99.90;;;;;;5116319;28;20550;-53
2023/06/30 12:23:06;;;;;;;2.78;0.65;;;21.80;99.90;;;;;;5134392;28;20126;-53
2023/06/30 12:25:33;;;;;;;2.30;0.77;;;21.80;99.90;;;;;;5134714;28;20130;-54
2023/06/30 12:28:05;;;;;;;2.67;0.60;;;21.80;99.90;;;;;;5134243;28;20051;-53
2023/06/30 12:30:31;;;;;;;1.60;0.52;;;21.70;99.90;;;;;;5134224;28;20484;-54
2023/06/30 12:32:58;;;;;;;3.33;0.60;;;21.60;99.90;;;;;;5134695;28;20043;-54
2023/06/30 12:35:29;;;;;;;3.40;0.90;;;21.60;99.90;;;;;;5134327;28;20087;-54
2023/06/30 12:37:54;;;;;;;1.75;0.52;;;21.80;99.90;;;;;;5134162;28;20553;-53
2023/06/30 12:40:22;;;;;;;1.08;0.60;;;21.90;99.90;;;;;;5134425;28;20052;-53
2023/06/30 12:42:48;;;;;;;2.10;0.77;;;22.10;99.90;;;;;;5134132;28;20043;-49
2023/06/30 12:45:14;;;;;;;2.40;0.60;;;22.20;99.90;;;;;;5134106;28;20055;-49
2023/06/30 12:47:40;;;;;;;3.28;0.85;;;22.50;99.90;;;;;;5134153;28;20045;-55